createdAt,value
2023-04-04T00:02:14.469Z,2.53
2023-04-04T00:04:46.832Z,3.50
2023-04-04T00:07:18.812Z,3.67
2023-04-04T00:09:50.972Z,3.43
2023-04-04T00:12:26.663Z,3.70
2023-04-04T00:15:00.503Z,7.27
2023-04-04T00:17:32.644Z,2.77
2023-04-04T00:20:05.574Z,3.87
2023-04-04T00:22:37.509Z,3.77
2023-04-04T00:25:10.897Z,3.50
2023-04-04T00:27:42.814Z,4.40
2023-04-04T00:30:14.972Z,3.97
2023-04-04T00:32:46.929Z,4.93
2023-04-04T00:35:19.039Z,3.73
2023-04-04T00:37:50.957Z,3.47
2023-04-04T00:40:22.919Z,4.43
2023-04-04T00:42:55.582Z,4.13
2023-04-04T00:45:27.683Z,3.20
2023-04-04T00:48:02.821Z,5.27
2023-04-04T00:50:34.767Z,4.73
2023-04-04T00:53:06.786Z,3.43
2023-04-04T00:55:39.735Z,3.80
2023-04-04T00:58:11.989Z,5.40
2023-04-04T01:00:44.098Z,5.53
2023-04-04T01:03:16.125Z,3.10
2023-04-04T01:05:48.397Z,4.17
2023-04-04T01:08:25.813Z,3.80
2023-04-04T01:10:58.452Z,3.20
2023-04-04T01:13:32.154Z,2.97
2023-04-04T01:16:04.477Z,3.60
2023-04-04T01:18:38.491Z,3.43
2023-04-04T01:21:14.335Z,4.43
2023-04-04T01:24:03.301Z,4.03
2023-04-04T01:26:35.690Z,4.43
2023-04-04T01:29:07.693Z,4.57
2023-04-04T01:31:46.545Z,5.40
2023-04-04T01:34:34.899Z,4.37
2023-04-04T01:37:37.440Z,4.67
2023-04-04T01:40:27.215Z,3.33
2023-04-04T01:42:59.335Z,3.50
2023-04-04T01:45:33.027Z,5.63
2023-04-04T01:48:05.175Z,5.73
2023-04-04T01:50:37.755Z,3.43
2023-04-04T01:53:09.782Z,3.27
2023-04-04T01:55:42.490Z,4.57
2023-04-04T01:58:14.487Z,6.30
2023-04-04T02:00:46.447Z,4.07
2023-04-04T02:03:18.428Z,4.07
2023-04-04T02:05:50.383Z,5.03
2023-04-04T02:08:22.610Z,3.73
2023-04-04T02:10:58.517Z,4.27
2023-04-04T02:13:30.930Z,3.60
2023-04-04T02:16:02.956Z,3.40
2023-04-04T02:18:36.235Z,3.10
2023-04-04T02:21:08.673Z,6.13
2023-04-04T02:23:40.690Z,4.93
2023-04-04T02:26:12.680Z,4.07
2023-04-04T02:28:45.104Z,3.43
2023-04-04T02:31:17.393Z,3.57
2023-04-04T02:33:49.388Z,3.47
2023-04-04T02:36:21.331Z,4.10
2023-04-04T02:38:53.506Z,3.63
2023-04-04T02:41:25.434Z,3.37
2023-04-04T02:43:57.359Z,3.23
2023-04-04T02:46:29.294Z,4.43
2023-04-04T02:49:02.021Z,3.20
2023-04-04T02:51:34.164Z,4.30
2023-04-04T02:54:06.337Z,5.00
2023-04-04T02:56:38.755Z,3.13
2023-04-04T02:59:11.173Z,4.43
2023-04-04T03:01:43.097Z,3.27
2023-04-04T03:04:15.176Z,4.37
2023-04-04T03:06:48.365Z,3.40
2023-04-04T03:09:20.278Z,3.37
2023-04-04T03:11:52.202Z,3.83
2023-04-04T03:14:26.560Z,4.47
2023-04-04T03:16:59.557Z,3.33
2023-04-04T03:19:32.231Z,3.27
2023-04-04T03:22:04.222Z,4.07
2023-04-04T03:24:38.127Z,3.53
2023-04-04T03:27:11.247Z,4.90
2023-04-04T03:29:43.131Z,5.57
2023-04-04T03:32:15.243Z,5.50
2023-04-04T03:34:47.197Z,6.23
2023-04-04T03:37:19.619Z,4.07
2023-04-04T03:39:51.528Z,4.27
2023-04-04T03:42:23.480Z,4.10
2023-04-04T03:44:55.549Z,3.77
2023-04-04T03:47:27.570Z,4.43
2023-04-04T03:49:59.514Z,4.33
2023-04-04T03:52:31.398Z,3.50
2023-04-04T03:55:03.409Z,5.23
2023-04-04T03:57:36.224Z,3.87
2023-04-04T04:00:08.822Z,4.00
2023-04-04T04:02:41.213Z,5.03
2023-04-04T04:05:13.494Z,3.30
2023-04-04T04:07:45.447Z,6.27
2023-04-04T04:10:18.417Z,4.53
2023-04-04T04:12:50.434Z,4.37
2023-04-04T04:15:22.465Z,4.77
2023-04-04T04:17:54.481Z,4.63
2023-04-04T04:20:26.552Z,3.23
2023-04-04T04:22:58.500Z,4.23
2023-04-04T04:25:30.448Z,3.80
2023-04-04T04:28:02.371Z,4.13
2023-04-04T04:30:34.336Z,3.93
2023-04-04T04:33:06.308Z,3.60
2023-04-04T04:35:39.891Z,4.30
2023-04-04T04:38:12.056Z,4.47
2023-04-04T04:40:43.994Z,5.23
2023-04-04T04:43:16.045Z,4.03
2023-04-04T04:45:48.463Z,4.67
2023-04-04T04:48:20.510Z,3.63
2023-04-04T04:50:52.447Z,4.17
2023-04-04T04:53:24.437Z,3.93
2023-04-04T04:55:56.366Z,3.87
2023-04-04T04:58:28.790Z,4.20
2023-04-04T05:01:01.113Z,4.63
2023-04-04T05:03:33.398Z,5.80
2023-04-04T05:06:06.829Z,4.80
2023-04-04T05:08:38.812Z,5.50
2023-04-04T05:11:10.897Z,5.67
2023-04-04T05:13:42.842Z,7.67
2023-04-04T05:16:14.846Z,5.63
2023-04-04T05:18:47.202Z,4.27
2023-04-04T05:21:19.740Z,5.33
2023-04-04T05:23:52.379Z,6.23
2023-04-04T05:26:25.021Z,6.23
2023-04-04T05:28:59.306Z,3.70
2023-04-04T05:31:31.300Z,5.00
2023-04-04T05:34:08.551Z,5.90
2023-04-04T05:36:41.791Z,8.37
2023-04-04T05:39:13.792Z,4.17
2023-04-04T05:41:45.729Z,4.00
2023-04-04T05:44:17.647Z,3.73
2023-04-04T05:46:49.578Z,5.37
2023-04-04T05:49:21.570Z,5.27
2023-04-04T05:51:56.546Z,5.53
2023-04-04T05:54:28.536Z,5.40
2023-04-04T05:57:00.535Z,6.93
2023-04-04T05:59:32.520Z,4.47
2023-04-04T06:02:04.509Z,4.10
2023-04-04T06:04:36.424Z,7.33
2023-04-04T06:07:08.344Z,5.10
2023-04-04T06:09:41.254Z,3.97
2023-04-04T06:12:13.239Z,6.63
2023-04-04T06:14:45.155Z,7.20
2023-04-04T06:17:17.260Z,6.63
2023-04-04T06:19:49.166Z,6.50
2023-04-04T06:22:21.678Z,5.07
2023-04-04T06:24:53.562Z,10.27
2023-04-04T06:27:25.530Z,7.17
2023-04-04T06:29:57.443Z,7.67
2023-04-04T06:32:32.006Z,5.23
2023-04-04T06:35:04.830Z,5.03
2023-04-04T06:37:36.715Z,6.63
2023-04-04T06:40:09.421Z,4.50
2023-04-04T06:42:58.538Z,5.37
2023-04-04T06:45:33.524Z,9.17
2023-04-04T06:48:05.755Z,4.63
2023-04-04T06:50:38.811Z,5.27
2023-04-04T06:53:11.980Z,4.83
2023-04-04T06:55:44.023Z,7.23
2023-04-04T06:58:16.087Z,5.67
2023-04-04T07:00:48.029Z,4.90
2023-04-04T07:03:20.411Z,6.70
2023-04-04T07:05:52.564Z,5.57
2023-04-04T07:08:24.552Z,7.03
2023-04-04T07:10:57.016Z,7.03
2023-04-04T07:13:28.987Z,7.57
2023-04-04T07:16:01.750Z,6.63
2023-04-04T07:18:33.724Z,7.60
2023-04-04T07:21:06.086Z,4.67
2023-04-04T07:23:38.088Z,6.63
2023-04-04T07:26:10.059Z,6.23
2023-04-04T07:28:42.150Z,5.33
2023-04-04T07:31:14.923Z,4.37
2023-04-04T07:33:46.889Z,6.00
2023-04-04T07:36:18.848Z,6.83
2023-04-04T07:38:51.145Z,4.90
2023-04-04T07:41:23.290Z,7.30
2023-04-04T07:43:55.408Z,5.47
2023-04-04T07:46:30.032Z,5.07
2023-04-04T07:49:02.575Z,5.80
2023-04-04T07:51:35.580Z,4.23
2023-04-04T07:54:07.577Z,5.63
2023-04-04T07:56:39.525Z,4.57
2023-04-04T07:59:12.072Z,4.80
2023-04-04T08:01:46.138Z,3.87
2023-04-04T08:04:18.454Z,5.73
2023-04-04T08:06:50.630Z,4.63
2023-04-04T08:09:22.528Z,3.90
2023-04-04T08:11:54.487Z,4.80
2023-04-04T08:14:27.117Z,5.20
2023-04-04T08:16:59.139Z,3.80
2023-04-04T08:19:31.215Z,4.20
2023-04-04T08:22:03.389Z,4.90
2023-04-04T08:24:36.738Z,4.43
2023-04-04T08:27:08.772Z,3.57
2023-04-04T08:29:40.715Z,5.20
2023-04-04T08:32:12.643Z,4.50
2023-04-04T08:34:44.576Z,3.37
2023-04-04T08:37:17.068Z,3.83
2023-04-04T08:39:50.141Z,4.23
2023-04-04T08:42:23.312Z,6.43
2023-04-04T08:45:00.803Z,4.60
2023-04-04T08:47:36.216Z,3.27
2023-04-04T08:50:08.646Z,3.73
2023-04-04T08:52:42.072Z,3.23
2023-04-04T08:55:15.391Z,5.13
2023-04-04T08:57:47.696Z,4.23
2023-04-04T09:00:21.566Z,4.33
2023-04-04T09:03:09.685Z,4.10
2023-04-04T09:05:44.172Z,4.57
2023-04-04T09:08:18.676Z,6.40
2023-04-04T09:10:52.528Z,2.97
2023-04-04T09:13:24.491Z,3.20
2023-04-04T09:15:58.793Z,3.40
2023-04-04T09:18:30.698Z,3.10
2023-04-04T09:21:13.307Z,5.63
2023-04-04T09:23:45.708Z,4.60
2023-04-04T09:26:17.620Z,2.80
2023-04-04T09:28:53.729Z,3.90
2023-04-04T09:31:26.088Z,4.43
2023-04-04T09:33:59.069Z,7.87
2023-04-04T09:36:31.651Z,4.43
2023-04-04T09:39:04.443Z,5.40
2023-04-04T09:41:41.279Z,4.03
2023-04-04T09:44:13.993Z,4.47
2023-04-04T09:46:47.809Z,4.33
2023-04-04T09:49:24.207Z,5.03
2023-04-04T09:51:56.539Z,2.97
2023-04-04T09:54:31.435Z,4.13
2023-04-04T09:57:03.898Z,4.07
2023-04-04T09:59:36.671Z,6.93
2023-04-04T10:02:10.679Z,3.23
2023-04-04T10:04:44.573Z,3.90
2023-04-04T10:07:18.721Z,3.77
2023-04-04T10:09:52.716Z,4.70
2023-04-04T10:12:28.037Z,4.50
2023-04-04T10:15:03.432Z,4.47
2023-04-04T10:17:41.020Z,4.10
2023-04-04T10:20:13.970Z,3.60
2023-04-04T10:22:47.247Z,3.00
2023-04-04T10:25:19.495Z,3.83
2023-04-04T10:27:51.918Z,5.30
2023-04-04T10:30:23.876Z,3.00
2023-04-04T10:33:27.659Z,3.47
2023-04-04T10:36:04.863Z,3.83
2023-04-04T10:38:44.926Z,4.33
2023-04-04T10:41:18.966Z,5.07
2023-04-04T10:44:00.689Z,3.63
2023-04-04T10:46:34.870Z,3.93
2023-04-04T10:49:07.046Z,4.27
2023-04-04T10:51:52.859Z,3.73
2023-04-04T10:54:27.817Z,4.00
2023-04-04T10:57:04.198Z,3.00
2023-04-04T11:00:13.746Z,3.13
2023-04-04T11:02:59.690Z,3.03
2023-04-04T11:05:41.063Z,2.73
2023-04-04T11:08:22.302Z,4.00
2023-04-04T11:10:57.367Z,3.53
2023-04-04T11:13:39.904Z,3.20
2023-04-04T11:16:16.339Z,4.23
2023-04-04T11:18:49.171Z,2.60
2023-04-04T11:21:27.863Z,3.57
2023-04-04T11:24:14.907Z,5.03
2023-04-04T11:26:47.561Z,3.57
2023-04-04T11:29:52.447Z,3.30
2023-04-04T11:32:50.098Z,3.70
2023-04-04T11:35:29.107Z,2.70
2023-04-04T11:38:02.092Z,3.73
2023-04-04T11:40:43.186Z,4.00
2023-04-04T11:43:17.066Z,5.03
2023-04-04T11:45:49.685Z,3.10
2023-04-04T11:48:23.855Z,3.00
2023-04-04T11:50:57.452Z,4.37
2023-04-04T11:53:32.422Z,4.37
2023-04-04T11:56:04.400Z,3.07
2023-04-04T11:58:37.152Z,3.73
2023-04-04T12:01:09.166Z,2.93
2023-04-04T12:03:41.732Z,3.87
2023-04-04T12:06:16.957Z,3.33
2023-04-04T12:08:49.218Z,3.97
2023-04-04T12:11:22.897Z,3.87
2023-04-04T12:13:55.702Z,3.43
2023-04-04T12:16:29.179Z,3.27
2023-04-04T12:19:03.941Z,3.87
2023-04-04T12:21:35.863Z,2.90
2023-04-04T12:24:09.304Z,3.33
2023-04-04T12:26:44.756Z,2.43
2023-04-04T12:29:20.627Z,3.63
2023-04-04T12:31:55.539Z,4.90
2023-04-04T12:34:34.080Z,3.80
2023-04-04T12:37:11.874Z,3.47
2023-04-04T12:39:52.392Z,3.60
2023-04-04T12:42:25.919Z,3.50
2023-04-04T12:44:59.009Z,3.97
2023-04-04T12:47:32.134Z,3.37
2023-04-04T12:50:08.558Z,4.40
2023-04-04T12:52:41.081Z,5.40
2023-04-04T12:55:13.333Z,4.60
2023-04-04T12:57:45.675Z,4.17
2023-04-04T13:00:21.549Z,2.43
2023-04-04T13:02:54.538Z,3.07
2023-04-04T13:05:26.701Z,3.37
2023-04-04T13:08:09.961Z,2.63
2023-04-04T13:11:03.815Z,2.60
2023-04-04T13:13:41.283Z,3.93
2023-04-04T13:16:30.603Z,5.00
2023-04-04T13:19:03.547Z,3.73
2023-04-04T13:21:35.679Z,5.40
2023-04-04T13:24:07.754Z,2.87
2023-04-04T13:26:40.226Z,2.73
2023-04-04T13:29:12.340Z,3.77
2023-04-04T13:31:44.645Z,5.40
2023-04-04T13:34:16.549Z,6.83
2023-04-04T13:36:48.473Z,3.60
2023-04-04T13:39:20.981Z,5.57
2023-04-04T13:41:52.982Z,3.67
2023-04-04T13:44:27.157Z,3.03
2023-04-04T13:46:59.254Z,4.97
2023-04-04T13:49:31.314Z,4.27
2023-04-04T13:52:03.711Z,2.97
2023-04-04T13:54:35.701Z,4.97
2023-04-04T13:57:07.599Z,4.20
2023-04-04T13:59:39.510Z,3.30
2023-04-04T14:02:11.583Z,3.70
2023-04-04T14:04:43.522Z,5.83
2023-04-04T14:07:15.777Z,4.30
2023-04-04T14:09:47.774Z,4.30
2023-04-04T14:12:19.753Z,4.30
2023-04-04T14:14:51.642Z,4.80
2023-04-04T14:17:23.709Z,3.03
2023-04-04T14:19:55.765Z,3.03
2023-04-04T14:22:27.762Z,3.10
2023-04-04T14:24:59.856Z,5.10
2023-04-04T14:27:31.836Z,4.30
2023-04-04T14:30:04.501Z,3.27
2023-04-04T14:32:36.519Z,3.20
2023-04-04T14:35:09.125Z,3.77
2023-04-04T14:37:41.360Z,3.77
2023-04-04T14:40:13.333Z,4.60
2023-04-04T14:42:45.276Z,3.17
2023-04-04T14:45:17.810Z,4.27
2023-04-04T14:47:49.789Z,3.20
2023-04-04T14:50:21.831Z,3.80
2023-04-04T14:52:56.449Z,5.33
2023-04-04T14:55:28.525Z,5.73
2023-04-04T14:58:02.956Z,3.37
2023-04-04T15:00:36.225Z,4.73
2023-04-04T15:03:08.397Z,3.90
2023-04-04T15:05:42.014Z,4.40
2023-04-04T15:08:14.199Z,4.50
2023-04-04T15:10:46.317Z,5.53
2023-04-04T15:13:18.494Z,3.57
2023-04-04T15:15:50.469Z,5.73
2023-04-04T15:18:22.421Z,4.80
2023-04-04T15:20:56.800Z,4.03
2023-04-04T15:23:28.752Z,6.03
2023-04-04T15:26:00.774Z,3.73
2023-04-04T15:28:33.216Z,4.47
2023-04-04T15:31:05.396Z,3.87
2023-04-04T15:33:37.376Z,5.27
2023-04-04T15:36:09.331Z,4.27
2023-04-04T15:38:41.242Z,4.33
2023-04-04T15:41:13.249Z,4.30
2023-04-04T15:43:45.199Z,5.60
2023-04-04T15:46:17.207Z,3.53
2023-04-04T15:48:51.953Z,4.57
2023-04-04T15:51:25.541Z,3.90
2023-04-04T15:53:57.570Z,3.87
2023-04-04T15:56:29.795Z,4.87
2023-04-04T15:59:01.874Z,6.90
2023-04-04T16:01:34.959Z,5.33
2023-04-04T16:04:06.963Z,4.47
2023-04-04T16:06:39.021Z,4.20
2023-04-04T16:09:11.424Z,4.63
2023-04-04T16:11:43.362Z,3.63
2023-04-04T16:14:15.329Z,3.80
2023-04-04T16:16:47.251Z,5.37
2023-04-04T16:19:19.295Z,4.40
2023-04-04T16:21:51.220Z,6.57
2023-04-04T16:24:23.167Z,3.70
2023-04-04T16:26:55.265Z,4.90
2023-04-04T16:29:31.022Z,4.70
2023-04-04T16:32:05.865Z,3.43
2023-04-04T16:34:38.852Z,4.13
2023-04-04T16:37:12.022Z,3.70
2023-04-04T16:39:44.129Z,6.87
2023-04-04T16:42:19.392Z,10.70
2023-04-04T16:44:51.341Z,4.67
2023-04-04T16:47:23.338Z,3.83
2023-04-04T16:49:55.616Z,4.93
2023-04-04T16:52:27.514Z,3.80
2023-04-04T16:54:59.448Z,4.27
2023-04-04T16:57:31.375Z,5.13
2023-04-04T17:00:06.652Z,4.83
2023-04-04T17:02:45.080Z,4.23
2023-04-04T17:05:17.269Z,4.40
2023-04-04T17:07:49.246Z,4.10
2023-04-04T17:10:21.341Z,4.60
2023-04-04T17:12:53.240Z,6.47
2023-04-04T17:15:25.234Z,5.47
2023-04-04T17:17:57.230Z,5.33
2023-04-04T17:20:30.991Z,4.17
2023-04-04T17:23:04.438Z,4.63
2023-04-04T17:25:36.635Z,5.23
2023-04-04T17:28:08.628Z,4.87
2023-04-04T17:30:41.498Z,4.00
2023-04-04T17:33:14.840Z,5.90
2023-04-04T17:35:48.241Z,5.93
2023-04-04T17:38:20.603Z,4.93
2023-04-04T17:40:53.138Z,4.20
2023-04-04T17:43:25.057Z,5.10
2023-04-04T17:45:57.621Z,6.07
2023-04-04T17:48:32.343Z,4.23
2023-04-04T17:51:06.907Z,5.40
2023-04-04T17:53:40.154Z,5.63
2023-04-04T17:56:12.150Z,5.37
2023-04-04T17:58:44.164Z,6.73
2023-04-04T18:01:16.311Z,5.47
2023-04-04T18:03:48.797Z,4.97
2023-04-04T18:06:21.155Z,4.73
2023-04-04T18:08:53.103Z,4.00
2023-04-04T18:11:25.131Z,4.80
2023-04-04T18:13:57.101Z,4.50
2023-04-04T18:16:29.334Z,5.67
2023-04-04T18:19:01.418Z,5.97
2023-04-04T18:21:33.355Z,6.27
2023-04-04T18:24:11.724Z,4.23
2023-04-04T18:26:45.078Z,5.53
2023-04-04T18:29:16.999Z,4.88
2023-04-04T18:31:49.017Z,6.70
2023-04-04T18:34:21.055Z,5.00
2023-04-04T18:36:53.246Z,6.33
2023-04-04T18:39:25.216Z,4.67
2023-04-04T18:41:57.652Z,5.43
2023-04-04T18:44:31.265Z,4.97
2023-04-04T18:47:05.324Z,4.77
2023-04-04T18:49:38.270Z,5.60
2023-04-04T18:52:10.578Z,6.50
2023-04-04T18:54:42.592Z,7.13
2023-04-04T18:57:14.720Z,6.90
2023-04-04T18:59:47.094Z,5.33
2023-04-04T19:02:19.070Z,4.13
2023-04-04T19:04:55.463Z,6.27
2023-04-04T19:07:30.852Z,5.73
2023-04-04T19:10:07.201Z,6.97
2023-04-04T19:12:39.396Z,5.13
2023-04-04T19:15:11.525Z,5.97
2023-04-04T19:17:43.693Z,6.33
2023-04-04T19:20:15.872Z,5.53
2023-04-04T19:22:47.875Z,6.47
2023-04-04T19:25:20.468Z,5.17
2023-04-04T19:27:52.517Z,5.60
2023-04-04T19:30:54.330Z,5.75
2023-04-04T19:33:26.736Z,5.77
2023-04-04T19:36:09.830Z,5.93
2023-04-04T19:38:44.282Z,5.43
2023-04-04T19:41:19.190Z,5.93
2023-04-04T19:43:51.106Z,5.80
2023-04-04T19:46:31.652Z,8.37
2023-04-04T19:49:14.209Z,6.20
2023-04-04T19:51:54.116Z,6.83
2023-04-04T19:54:36.820Z,6.83
2023-04-04T19:57:18.969Z,7.10
2023-04-04T20:00:01.706Z,5.57
2023-04-04T20:02:33.851Z,6.43
2023-04-04T20:05:56.940Z,7.78
2023-04-04T20:08:41.090Z,6.50
2023-04-04T20:11:13.857Z,7.40
2023-04-04T20:13:46.407Z,6.00
2023-04-04T20:16:18.625Z,5.50
2023-04-04T20:18:51.777Z,7.10
2023-04-04T20:21:31.498Z,7.47
2023-04-04T20:24:10.028Z,7.17
2023-04-04T20:26:55.273Z,7.20
2023-04-04T20:29:33.570Z,6.40
2023-04-04T20:32:08.709Z,7.60
2023-04-04T20:34:49.306Z,7.93
2023-04-04T20:37:26.541Z,6.90
2023-04-04T20:40:14.746Z,8.07
2023-04-04T20:42:47.832Z,7.83
2023-04-04T20:45:46.798Z,6.83
2023-04-04T20:48:37.876Z,7.97
2023-04-04T20:51:31.911Z,6.87
2023-04-04T20:54:04.429Z,8.40
2023-04-04T20:56:42.520Z,6.57
2023-04-04T20:59:38.396Z,7.00
2023-04-04T21:02:19.928Z,8.07
2023-04-04T21:04:52.403Z,8.00
2023-04-04T21:07:42.405Z,7.33
2023-04-04T21:10:51.651Z,7.83
2023-04-04T21:13:28.884Z,7.43
2023-04-04T21:16:13.390Z,7.63
2023-04-04T21:18:46.011Z,7.57
2023-04-04T21:21:19.954Z,7.50
2023-04-04T21:23:56.803Z,7.80
2023-04-04T21:26:34.897Z,9.67
2023-04-04T21:29:25.304Z,7.10
2023-04-04T21:31:57.904Z,7.57
2023-04-04T21:34:31.238Z,8.20
2023-04-04T21:37:05.601Z,7.90
2023-04-04T21:39:37.546Z,10.10
2023-04-04T21:42:09.439Z,8.13
2023-04-04T21:44:42.115Z,7.43
2023-04-04T21:47:15.699Z,8.60
2023-04-04T21:49:47.788Z,7.53
2023-04-04T21:52:19.702Z,7.13
2023-04-04T21:54:51.666Z,6.97
2023-04-04T21:57:23.672Z,7.33
2023-04-04T21:59:55.723Z,8.23
2023-04-04T22:02:27.669Z,9.20
2023-04-04T22:04:59.826Z,9.27
2023-04-04T22:07:31.846Z,8.03
2023-04-04T22:10:08.856Z,7.80
2023-04-04T22:12:42.645Z,9.70
2023-04-04T22:15:17.521Z,7.83
2023-04-04T22:17:54.999Z,8.43
2023-04-04T22:20:27.054Z,8.90
2023-04-04T22:22:59.896Z,7.00
2023-04-04T22:25:33.858Z,6.93
2023-04-04T22:28:08.603Z,8.57
2023-04-04T22:30:42.396Z,7.77
2023-04-04T22:33:14.599Z,8.90
2023-04-04T22:35:46.582Z,6.80
2023-04-04T22:38:18.576Z,7.63
2023-04-04T22:40:50.481Z,6.90
2023-04-04T22:43:22.714Z,11.17
2023-04-04T22:45:54.698Z,9.27
2023-04-04T22:48:26.638Z,7.63
2023-04-04T22:50:58.819Z,8.17
2023-04-04T22:53:31.006Z,8.17
2023-04-04T22:56:02.987Z,8.60
2023-04-04T22:58:34.971Z,7.97
2023-04-04T23:01:06.992Z,8.50
2023-04-04T23:03:39.043Z,7.10
2023-04-04T23:06:10.931Z,7.20
2023-04-04T23:08:43.103Z,8.23
2023-04-04T23:11:15.036Z,8.70
2023-04-04T23:13:47.198Z,7.90
2023-04-04T23:16:22.364Z,8.50
2023-04-04T23:18:54.405Z,7.80
2023-04-04T23:21:26.459Z,11.20
2023-04-04T23:23:58.675Z,8.73
2023-04-04T23:26:32.595Z,8.53
2023-04-04T23:29:05.708Z,8.87
2023-04-04T23:31:38.017Z,7.70
2023-04-04T23:34:10.084Z,9.57
2023-04-04T23:36:42.081Z,10.13
2023-04-04T23:39:14.932Z,8.80
2023-04-04T23:41:46.918Z,8.90
2023-04-04T23:44:18.856Z,8.57
2023-04-04T23:46:51.567Z,9.23
2023-04-04T23:49:23.791Z,10.27
2023-04-04T23:51:55.836Z,14.40
2023-04-04T23:54:27.806Z,9.77
2023-04-04T23:56:59.837Z,11.77
2023-04-04T23:59:31.956Z,9.60
